createdAt,value
2018-07-22T00:00:09.848Z,16.98
2018-07-22T00:01:09.892Z,17.03
2018-07-22T00:02:09.781Z,17.03
2018-07-22T00:03:09.877Z,17.06
2018-07-22T00:04:09.820Z,17.13
2018-07-22T00:05:09.847Z,17.20
2018-07-22T00:06:09.780Z,17.20
2018-07-22T00:07:09.888Z,17.22
2018-07-22T00:08:09.777Z,17.21
2018-07-22T00:09:09.787Z,17.20
2018-07-22T00:10:09.764Z,17.20
2018-07-22T00:11:09.800Z,17.16
2018-07-22T00:12:09.796Z,17.16
2018-07-22T00:13:09.823Z,17.13
2018-07-22T00:14:09.957Z,17.09
2018-07-22T00:15:09.903Z,17.08
2018-07-22T00:16:09.788Z,17.08
2018-07-22T00:17:09.839Z,17.06
2018-07-22T00:18:09.823Z,17.03
2018-07-22T00:19:09.863Z,17.01
2018-07-22T00:20:09.771Z,16.99
2018-07-22T00:21:09.790Z,16.98
2018-07-22T00:22:09.843Z,16.94
2018-07-22T00:23:09.888Z,16.90
2018-07-22T00:24:09.896Z,16.88
2018-07-22T00:25:09.898Z,16.85
2018-07-22T00:26:09.768Z,16.81
2018-07-22T00:27:09.785Z,16.77
2018-07-22T00:28:09.814Z,16.73
2018-07-22T00:29:09.916Z,16.72
2018-07-22T00:30:09.791Z,16.68
2018-07-22T00:31:09.910Z,16.63
2018-07-22T00:32:09.878Z,16.63
2018-07-22T00:33:09.808Z,16.61
2018-07-22T00:34:09.770Z,16.57
2018-07-22T00:35:09.808Z,16.54
2018-07-22T00:36:09.881Z,16.51
2018-07-22T00:37:09.774Z,16.48
2018-07-22T00:38:09.880Z,16.47
2018-07-22T00:39:09.811Z,16.44
2018-07-22T00:40:09.852Z,16.39
2018-07-22T00:41:09.812Z,16.38
2018-07-22T00:42:09.846Z,16.33
2018-07-22T00:43:09.881Z,16.32
2018-07-22T00:44:09.816Z,16.32
2018-07-22T00:45:09.886Z,16.32
2018-07-22T00:46:09.882Z,16.31
2018-07-22T00:47:09.885Z,16.31
2018-07-22T00:48:09.815Z,16.28
2018-07-22T00:49:09.833Z,16.27
2018-07-22T00:50:09.816Z,16.25
2018-07-22T00:51:09.821Z,16.24
2018-07-22T00:52:09.934Z,16.18
2018-07-22T00:53:09.917Z,16.14
2018-07-22T00:54:09.929Z,16.13
2018-07-22T00:55:09.893Z,16.10
2018-07-22T00:56:09.815Z,16.09
2018-07-22T00:57:09.818Z,16.06
2018-07-22T00:58:09.873Z,16.03
2018-07-22T00:59:09.851Z,15.99
2018-07-22T01:00:09.994Z,15.94
2018-07-22T01:01:09.937Z,15.91
2018-07-22T01:02:09.899Z,15.88
2018-07-22T01:03:09.916Z,15.86
2018-07-22T01:04:09.920Z,15.83
2018-07-22T01:05:09.933Z,15.86
2018-07-22T01:06:09.878Z,15.83
2018-07-22T01:07:09.804Z,15.80
2018-07-22T01:08:09.938Z,15.77
2018-07-22T01:09:09.880Z,15.73
2018-07-22T01:10:09.943Z,15.69
2018-07-22T01:11:09.865Z,15.69
2018-07-22T01:12:09.968Z,15.65
2018-07-22T01:13:09.907Z,15.61
2018-07-22T01:14:09.962Z,15.59
2018-07-22T01:15:09.944Z,15.55
2018-07-22T01:16:09.940Z,15.50
2018-07-22T01:17:09.829Z,15.47
2018-07-22T01:18:09.868Z,15.43
2018-07-22T01:19:09.865Z,15.42
2018-07-22T01:20:09.915Z,15.40
2018-07-22T01:21:09.878Z,15.39
2018-07-22T01:22:09.877Z,15.36
2018-07-22T01:23:09.875Z,15.35
2018-07-22T01:24:09.914Z,15.32
2018-07-22T01:25:09.912Z,15.31
2018-07-22T01:26:09.935Z,15.32
2018-07-22T01:27:09.881Z,15.29
2018-07-22T01:28:09.925Z,15.29
2018-07-22T01:29:09.951Z,15.28
2018-07-22T01:30:09.891Z,15.26
2018-07-22T01:31:09.837Z,15.26
2018-07-22T01:32:09.917Z,15.31
2018-07-22T01:33:09.919Z,15.33
2018-07-22T01:34:09.890Z,15.32
2018-07-22T01:35:09.918Z,15.35
2018-07-22T01:36:09.972Z,15.33
2018-07-22T01:37:09.860Z,15.32
2018-07-22T01:38:09.850Z,15.29
2018-07-22T01:39:09.852Z,15.31
2018-07-22T01:40:09.923Z,15.32
2018-07-22T01:41:09.908Z,15.32
2018-07-22T01:42:09.989Z,15.32
2018-07-22T01:43:09.906Z,15.29
2018-07-22T01:44:09.957Z,15.29
2018-07-22T01:45:09.847Z,15.28
2018-07-22T01:46:09.955Z,15.35
2018-07-22T01:47:09.924Z,15.36
2018-07-22T01:48:09.931Z,15.36
2018-07-22T01:49:09.847Z,15.36
2018-07-22T01:50:09.886Z,15.33
2018-07-22T01:51:09.929Z,15.35
2018-07-22T01:52:09.927Z,15.36
2018-07-22T01:53:09.871Z,15.39
2018-07-22T01:54:09.860Z,15.40
2018-07-22T01:55:09.863Z,15.42
2018-07-22T01:56:09.932Z,15.40
2018-07-22T01:57:09.942Z,15.39
2018-07-22T01:58:09.935Z,15.40
2018-07-22T01:59:09.867Z,15.39
2018-07-22T02:00:09.870Z,15.40
2018-07-22T02:01:10.001Z,15.39
2018-07-22T02:02:09.939Z,15.37
2018-07-22T02:03:09.943Z,15.37
2018-07-22T02:04:09.937Z,15.37
2018-07-22T02:05:09.941Z,15.36
2018-07-22T02:06:09.873Z,15.33
2018-07-22T02:07:09.943Z,15.33
2018-07-22T02:08:09.836Z,15.31
2018-07-22T02:09:09.874Z,15.31
2018-07-22T02:10:09.875Z,15.28
2018-07-22T02:11:09.943Z,15.26
2018-07-22T02:12:09.946Z,15.25
2018-07-22T02:13:09.968Z,15.26
2018-07-22T02:14:09.948Z,15.26
2018-07-22T02:15:09.878Z,15.25
2018-07-22T02:16:09.903Z,15.22
2018-07-22T02:17:09.916Z,15.25
2018-07-22T02:18:09.952Z,15.22
2018-07-22T02:19:09.885Z,15.21
2018-07-22T02:20:09.973Z,15.22
2018-07-22T02:21:09.959Z,15.25
2018-07-22T02:22:09.911Z,15.26
2018-07-22T02:23:09.882Z,15.28
2018-07-22T02:24:09.892Z,15.26
2018-07-22T02:25:09.886Z,15.24
2018-07-22T02:26:09.841Z,15.19
2018-07-22T02:27:09.885Z,15.18
2018-07-22T02:28:09.975Z,15.18
2018-07-22T02:29:09.887Z,15.21
2018-07-22T02:30:09.890Z,15.24
2018-07-22T02:31:09.892Z,15.22
2018-07-22T02:32:10.033Z,15.19
2018-07-22T02:33:09.876Z,15.19
2018-07-22T02:34:09.910Z,15.15
2018-07-22T02:35:09.817Z,15.15
2018-07-22T02:36:09.919Z,15.14
2018-07-22T02:37:09.828Z,15.15
2018-07-22T02:38:09.876Z,15.14
2018-07-22T02:39:09.882Z,15.14
2018-07-22T02:40:09.913Z,15.14
2018-07-22T02:41:09.879Z,15.11
2018-07-22T02:42:09.884Z,15.10
2018-07-22T02:43:09.985Z,15.11
2018-07-22T02:44:09.886Z,15.15
2018-07-22T02:45:10.053Z,15.15
2018-07-22T02:46:09.958Z,15.15
2018-07-22T02:47:09.886Z,15.13
2018-07-22T02:48:09.963Z,15.11
2018-07-22T02:49:09.889Z,15.07
2018-07-22T02:50:09.961Z,15.04
2018-07-22T02:51:09.894Z,15.03
2018-07-22T02:52:09.962Z,15.00
2018-07-22T02:53:09.974Z,15.00
2018-07-22T02:54:09.979Z,15.07
2018-07-22T02:55:09.945Z,15.10
2018-07-22T02:56:09.985Z,15.10
2018-07-22T02:57:09.993Z,15.10
2018-07-22T02:58:09.962Z,15.10
2018-07-22T02:59:09.893Z,15.10
2018-07-22T03:00:10.026Z,15.07
2018-07-22T03:01:09.918Z,15.07
2018-07-22T03:02:09.956Z,15.07
2018-07-22T03:03:09.903Z,15.07
2018-07-22T03:04:09.896Z,15.07
2018-07-22T03:05:10.013Z,15.07
2018-07-22T03:06:09.918Z,15.06
2018-07-22T03:07:09.907Z,15.10
2018-07-22T03:08:09.901Z,15.10
2018-07-22T03:09:09.904Z,15.08
2018-07-22T03:10:10.016Z,15.08
2018-07-22T03:11:09.905Z,15.10
2018-07-22T03:12:10.010Z,15.10
2018-07-22T03:13:10.025Z,15.13
2018-07-22T03:14:09.961Z,15.13
2018-07-22T03:15:09.899Z,15.14
2018-07-22T03:16:09.969Z,15.17
2018-07-22T03:17:10.015Z,15.19
2018-07-22T03:18:09.946Z,15.22
2018-07-22T03:19:09.963Z,15.22
2018-07-22T03:20:09.967Z,15.21
2018-07-22T03:21:10.050Z,15.24
2018-07-22T03:22:09.928Z,15.24
2018-07-22T03:23:09.991Z,15.22
2018-07-22T03:24:09.950Z,15.25
2018-07-22T03:25:09.919Z,15.25
2018-07-22T03:26:09.999Z,15.26
2018-07-22T03:27:10.042Z,15.26
2018-07-22T03:28:09.977Z,15.29
2018-07-22T03:29:09.932Z,15.32
2018-07-22T03:30:10.003Z,15.32
2018-07-22T03:31:09.972Z,15.33
2018-07-22T03:32:10.040Z,15.33
2018-07-22T03:33:09.894Z,15.35
2018-07-22T03:34:09.886Z,15.36
2018-07-22T03:35:09.918Z,15.37
2018-07-22T03:36:09.919Z,15.39
2018-07-22T03:37:09.919Z,15.42
2018-07-22T03:38:09.923Z,15.43
2018-07-22T03:39:09.893Z,15.46
2018-07-22T03:40:09.865Z,15.47
2018-07-22T03:41:09.922Z,15.54
2018-07-22T03:42:09.973Z,15.54
2018-07-22T03:43:09.907Z,15.55
2018-07-22T03:44:09.866Z,15.59
2018-07-22T03:45:09.905Z,15.61
2018-07-22T03:46:09.950Z,15.64
2018-07-22T03:47:09.952Z,15.65
2018-07-22T03:48:09.997Z,15.65
2018-07-22T03:49:09.951Z,15.70
2018-07-22T03:50:09.950Z,15.73
2018-07-22T03:51:09.890Z,15.75
2018-07-22T03:52:09.909Z,15.76
2018-07-22T03:53:10.110Z,15.77
2018-07-22T03:54:10.016Z,15.77
2018-07-22T03:55:10.021Z,15.79
2018-07-22T03:56:09.944Z,15.80
2018-07-22T03:57:09.975Z,15.80
2018-07-22T03:58:10.025Z,15.82
2018-07-22T03:59:09.946Z,15.83
2018-07-22T04:00:09.913Z,15.83
2018-07-22T04:01:09.951Z,15.84
2018-07-22T04:02:10.018Z,15.86
2018-07-22T04:03:10.023Z,15.86
2018-07-22T04:04:10.026Z,15.88
2018-07-22T04:05:09.941Z,15.88
2018-07-22T04:06:10.023Z,15.88
2018-07-22T04:07:10.021Z,15.88
2018-07-22T04:08:10.000Z,15.90
2018-07-22T04:09:10.167Z,15.94
2018-07-22T04:10:10.048Z,15.94
2018-07-22T04:11:09.962Z,15.95
2018-07-22T04:12:10.040Z,15.95
2018-07-22T04:13:09.942Z,15.95
2018-07-22T04:14:09.913Z,15.97
2018-07-22T04:15:09.978Z,15.97
2018-07-22T04:16:09.970Z,15.95
2018-07-22T04:17:09.971Z,15.99
2018-07-22T04:18:09.934Z,15.97
2018-07-22T04:19:09.886Z,15.97
2018-07-22T04:20:09.975Z,15.95
2018-07-22T04:21:09.975Z,15.97
2018-07-22T04:22:09.934Z,16.02
2018-07-22T04:23:09.948Z,16.06
2018-07-22T04:24:09.955Z,16.06
2018-07-22T04:25:10.023Z,16.06
2018-07-22T04:26:09.955Z,16.06
2018-07-22T04:27:10.028Z,16.07
2018-07-22T04:28:09.972Z,16.09
2018-07-22T04:29:09.906Z,16.10
2018-07-22T04:30:09.958Z,16.11
2018-07-22T04:31:10.031Z,16.14
2018-07-22T04:32:10.029Z,16.18
2018-07-22T04:33:09.938Z,16.24
2018-07-22T04:34:10.040Z,16.25
2018-07-22T04:35:10.066Z,16.31
2018-07-22T04:36:09.960Z,16.33
2018-07-22T04:37:10.020Z,16.33
2018-07-22T04:38:10.023Z,16.39
2018-07-22T04:39:10.071Z,16.44
2018-07-22T04:40:10.072Z,16.48
2018-07-22T04:41:10.011Z,16.51
2018-07-22T04:42:10.079Z,16.55
2018-07-22T04:43:09.907Z,16.57
2018-07-22T04:44:09.994Z,16.58
2018-07-22T04:45:09.901Z,16.61
2018-07-22T04:46:09.991Z,16.63
2018-07-22T04:47:09.966Z,16.65
2018-07-22T04:48:09.992Z,16.68
2018-07-22T04:49:09.951Z,16.69
2018-07-22T04:50:09.928Z,16.69
2018-07-22T04:51:09.998Z,16.72
2018-07-22T04:52:10.005Z,16.73
2018-07-22T04:53:10.053Z,16.77
2018-07-22T04:54:09.981Z,16.79
2018-07-22T04:55:10.052Z,16.80
2018-07-22T04:56:09.986Z,16.80
2018-07-22T04:57:10.052Z,16.80
2018-07-22T04:58:09.984Z,16.80
2018-07-22T04:59:09.986Z,16.84
2018-07-22T05:00:10.056Z,16.85
2018-07-22T05:01:10.059Z,16.90
2018-07-22T05:02:09.988Z,16.92
2018-07-22T05:03:10.038Z,16.95
2018-07-22T05:04:10.036Z,16.98
2018-07-22T05:05:10.014Z,16.99
2018-07-22T05:06:10.062Z,17.02
2018-07-22T05:07:10.061Z,17.05
2018-07-22T05:08:10.094Z,17.08
2018-07-22T05:09:10.028Z,17.08
2018-07-22T05:10:10.072Z,17.09
2018-07-22T05:11:10.095Z,17.12
2018-07-22T05:12:10.039Z,17.10
2018-07-22T05:13:10.067Z,17.13
2018-07-22T05:14:10.003Z,17.14
2018-07-22T05:15:10.103Z,17.14
2018-07-22T05:16:10.074Z,17.18
2018-07-22T05:17:10.036Z,17.22
2018-07-22T05:18:10.099Z,17.24
2018-07-22T05:19:10.087Z,17.26
2018-07-22T05:20:10.023Z,17.31
2018-07-22T05:21:10.035Z,17.32
2018-07-22T05:22:10.105Z,17.36
2018-07-22T05:23:10.051Z,17.39
2018-07-22T05:24:10.071Z,17.43
2018-07-22T05:25:10.043Z,17.49
2018-07-22T05:26:10.061Z,17.53
2018-07-22T05:27:10.080Z,17.57
2018-07-22T05:28:10.094Z,17.62
2018-07-22T05:29:10.076Z,17.68
2018-07-22T05:30:10.012Z,17.72
2018-07-22T05:31:10.077Z,17.77
2018-07-22T05:32:10.049Z,17.83
2018-07-22T05:33:10.076Z,17.87
2018-07-22T05:34:10.250Z,17.94
2018-07-22T05:35:10.081Z,17.95
2018-07-22T05:36:10.083Z,18.02
2018-07-22T05:37:10.078Z,18.06
2018-07-22T05:38:10.018Z,18.09
2018-07-22T05:39:10.021Z,18.13
2018-07-22T05:40:10.017Z,18.18
2018-07-22T05:41:10.081Z,18.24
2018-07-22T05:42:10.063Z,18.31
2018-07-22T05:43:10.117Z,18.40
2018-07-22T05:44:10.110Z,18.46
2018-07-22T05:45:10.086Z,18.51
2018-07-22T05:46:10.053Z,18.58
2018-07-22T05:47:10.027Z,18.65
2018-07-22T05:48:10.112Z,18.70
2018-07-22T05:49:10.065Z,18.77
2018-07-22T05:50:10.080Z,18.84
2018-07-22T05:51:10.012Z,18.88
2018-07-22T05:52:10.031Z,18.98
2018-07-22T05:53:10.057Z,19.06
2018-07-22T05:54:10.119Z,19.12
2018-07-22T05:55:10.017Z,19.19
2018-07-22T05:56:10.095Z,19.24
2018-07-22T05:57:10.091Z,19.31
2018-07-22T05:58:10.057Z,19.35
2018-07-22T05:59:10.054Z,19.38
2018-07-22T06:00:10.111Z,19.35
2018-07-22T06:01:10.055Z,19.35
2018-07-22T06:02:10.124Z,19.42
2018-07-22T06:03:10.137Z,19.44
2018-07-22T06:04:10.093Z,19.47
2018-07-22T06:05:10.121Z,19.53
2018-07-22T06:06:10.070Z,19.55
2018-07-22T06:07:10.122Z,19.55
2018-07-22T06:08:10.041Z,19.55
2018-07-22T06:09:10.147Z,19.55
2018-07-22T06:10:10.130Z,19.60
2018-07-22T06:11:10.057Z,19.62
2018-07-22T06:12:10.167Z,19.64
2018-07-22T06:13:10.010Z,19.68
2018-07-22T06:14:10.081Z,19.77
2018-07-22T06:15:10.005Z,19.79
2018-07-22T06:16:10.127Z,19.90
2018-07-22T06:17:10.070Z,20.01
2018-07-22T06:18:10.086Z,20.14
2018-07-22T06:19:10.134Z,20.28
2018-07-22T06:20:10.150Z,20.42
2018-07-22T06:21:10.047Z,20.57
2018-07-22T06:22:10.069Z,20.75
2018-07-22T06:23:10.135Z,20.91
2018-07-22T06:24:10.111Z,21.09
2018-07-22T06:25:10.014Z,21.18
2018-07-22T06:26:10.022Z,21.28
2018-07-22T06:27:10.140Z,21.35
2018-07-22T06:28:10.135Z,21.50
2018-07-22T06:29:10.137Z,21.61
2018-07-22T06:30:10.094Z,21.60
2018-07-22T06:31:10.131Z,21.65
2018-07-22T06:32:10.134Z,21.71
2018-07-22T06:33:10.091Z,21.73
2018-07-22T06:34:10.102Z,21.73
2018-07-22T06:35:10.156Z,21.73
2018-07-22T06:36:10.086Z,21.79
2018-07-22T06:37:10.159Z,21.78
2018-07-22T06:38:10.127Z,21.75
2018-07-22T06:39:10.082Z,21.80
2018-07-22T06:40:10.083Z,21.75
2018-07-22T06:41:10.046Z,21.80
2018-07-22T06:42:10.078Z,21.87
2018-07-22T06:43:10.135Z,21.82
2018-07-22T06:44:10.092Z,21.89
2018-07-22T06:45:10.106Z,21.94
2018-07-22T06:46:10.147Z,22.02
2018-07-22T06:47:10.039Z,22.09
2018-07-22T06:48:10.100Z,22.12
2018-07-22T06:49:10.132Z,22.12
2018-07-22T06:50:10.029Z,22.16
2018-07-22T06:51:10.134Z,22.20
2018-07-22T06:52:10.145Z,22.36
2018-07-22T06:53:10.070Z,22.46
2018-07-22T06:54:10.098Z,22.54
2018-07-22T06:55:10.093Z,22.67
2018-07-22T06:56:10.094Z,22.80
2018-07-22T06:57:10.099Z,23.00
2018-07-22T06:58:10.174Z,23.13
2018-07-22T06:59:10.100Z,23.35
2018-07-22T07:00:10.181Z,23.57
2018-07-22T07:01:10.107Z,23.79
2018-07-22T07:02:10.172Z,24.07
2018-07-22T07:03:10.007Z,24.15
2018-07-22T07:04:10.071Z,24.26
2018-07-22T07:05:10.131Z,24.19
2018-07-22T07:06:10.046Z,24.16
2018-07-22T07:07:10.128Z,24.27
2018-07-22T07:08:10.134Z,24.29
2018-07-22T07:09:10.014Z,24.27
2018-07-22T07:10:10.138Z,24.34
2018-07-22T07:11:10.062Z,24.44
2018-07-22T07:12:10.132Z,24.26
2018-07-22T07:13:10.093Z,24.09
2018-07-22T07:14:10.076Z,24.34
2018-07-22T07:15:10.146Z,24.44
2018-07-22T07:16:10.079Z,24.54
2018-07-22T07:17:10.146Z,24.68
2018-07-22T07:18:10.083Z,24.63
2018-07-22T07:19:10.148Z,24.70
2018-07-22T07:20:10.086Z,24.72
2018-07-22T07:21:10.088Z,24.61
2018-07-22T07:22:10.218Z,24.57
2018-07-22T07:23:10.177Z,24.75
2018-07-22T07:24:10.181Z,24.95
2018-07-22T07:25:10.181Z,25.01
2018-07-22T07:26:10.184Z,25.20
2018-07-22T07:27:10.119Z,25.16
2018-07-22T07:28:10.134Z,25.05
2018-07-22T07:29:10.135Z,24.95
2018-07-22T07:30:10.186Z,24.83
2018-07-22T07:31:10.122Z,24.95
2018-07-22T07:32:10.113Z,25.01
2018-07-22T07:33:10.115Z,25.20
2018-07-22T07:34:10.120Z,25.40
2018-07-22T07:35:10.057Z,25.38
2018-07-22T07:36:10.098Z,25.53
2018-07-22T07:37:10.189Z,25.71
2018-07-22T07:38:10.180Z,25.66
2018-07-22T07:39:10.144Z,25.52
2018-07-22T07:40:10.101Z,25.42
2018-07-22T07:41:10.092Z,25.09
2018-07-22T07:42:10.067Z,24.95
2018-07-22T07:43:10.101Z,25.05
2018-07-22T07:44:10.166Z,25.12
2018-07-22T07:45:10.100Z,25.40
2018-07-22T07:46:10.167Z,25.59
2018-07-22T07:47:10.103Z,25.59
2018-07-22T07:48:10.167Z,25.46
2018-07-22T07:49:10.104Z,25.49
2018-07-22T07:50:10.106Z,25.60
2018-07-22T07:51:10.107Z,25.64
2018-07-22T07:52:10.170Z,25.66
2018-07-22T07:53:10.109Z,25.78
2018-07-22T07:54:10.171Z,25.88
2018-07-22T07:55:10.103Z,25.82
2018-07-22T07:56:10.106Z,25.74
2018-07-22T07:57:10.107Z,25.77
2018-07-22T07:58:10.176Z,25.82
2018-07-22T07:59:10.145Z,25.64
2018-07-22T08:00:10.178Z,25.52
2018-07-22T08:01:10.111Z,25.62
2018-07-22T08:02:10.176Z,25.66
2018-07-22T08:03:10.193Z,25.52
2018-07-22T08:04:10.208Z,25.37
2018-07-22T08:05:10.207Z,25.30
2018-07-22T08:06:10.213Z,25.37
2018-07-22T08:07:10.315Z,25.51
2018-07-22T08:08:10.217Z,25.59
2018-07-22T08:09:10.186Z,25.59
2018-07-22T08:10:10.184Z,25.42
2018-07-22T08:11:10.185Z,25.37
2018-07-22T08:12:10.167Z,25.38
2018-07-22T08:13:10.127Z,25.37
2018-07-22T08:14:10.187Z,25.51
2018-07-22T08:15:10.190Z,25.57
2018-07-22T08:16:10.167Z,25.73
2018-07-22T08:17:10.188Z,25.55
2018-07-22T08:18:10.195Z,25.37
2018-07-22T08:19:10.204Z,25.29
2018-07-22T08:20:10.125Z,25.17
2018-07-22T08:21:10.192Z,25.02
2018-07-22T08:22:10.140Z,24.97
2018-07-22T08:23:10.128Z,24.89
2018-07-22T08:24:10.128Z,24.85
2018-07-22T08:25:10.129Z,24.91
2018-07-22T08:26:10.139Z,24.94
2018-07-22T08:27:10.199Z,25.02
2018-07-22T08:28:10.198Z,24.97
2018-07-22T08:29:10.204Z,25.01
2018-07-22T08:30:10.267Z,25.05
2018-07-22T08:31:10.133Z,25.22
2018-07-22T08:32:10.197Z,25.26
2018-07-22T08:33:10.139Z,25.37
2018-07-22T08:34:10.089Z,25.62
2018-07-22T08:35:10.133Z,25.73
2018-07-22T08:36:10.152Z,25.81
2018-07-22T08:37:10.180Z,26.07
2018-07-22T08:38:10.072Z,26.24
2018-07-22T08:39:10.137Z,26.29
2018-07-22T08:40:10.097Z,26.51
2018-07-22T08:41:10.250Z,26.44
2018-07-22T08:42:10.093Z,26.56
2018-07-22T08:43:10.100Z,26.82
2018-07-22T08:44:10.180Z,26.66
2018-07-22T08:45:10.168Z,26.66
2018-07-22T08:46:10.164Z,26.68
2018-07-22T08:47:10.229Z,26.64
2018-07-22T08:48:10.170Z,26.70
2018-07-22T08:49:10.182Z,26.75
2018-07-22T08:50:10.193Z,26.89
2018-07-22T08:51:10.137Z,26.89
2018-07-22T08:52:10.184Z,26.79
2018-07-22T08:53:10.229Z,26.82
2018-07-22T08:54:10.148Z,26.88
2018-07-22T08:55:10.220Z,27.03
2018-07-22T08:56:10.151Z,27.18
2018-07-22T08:57:10.213Z,27.44
2018-07-22T08:58:10.151Z,27.65
2018-07-22T08:59:10.218Z,27.89
2018-07-22T09:00:10.158Z,28.17
2018-07-22T09:01:10.222Z,28.44
2018-07-22T09:02:10.156Z,28.60
2018-07-22T09:03:10.162Z,28.61
2018-07-22T09:04:10.223Z,28.58
2018-07-22T09:05:10.155Z,28.72
2018-07-22T09:06:10.230Z,28.61
2018-07-22T09:07:10.157Z,28.47
2018-07-22T09:08:10.203Z,28.33
2018-07-22T09:09:10.230Z,28.15
2018-07-22T09:10:10.160Z,28.09
2018-07-22T09:11:10.159Z,28.07
2018-07-22T09:12:10.163Z,28.17
2018-07-22T09:13:10.232Z,28.21
2018-07-22T09:14:10.173Z,28.35
2018-07-22T09:15:10.260Z,28.29
2018-07-22T09:16:10.232Z,28.15
2018-07-22T09:17:10.160Z,28.22
2018-07-22T09:18:10.253Z,28.24
2018-07-22T09:19:10.234Z,28.13
2018-07-22T09:20:10.155Z,28.18
2018-07-22T09:21:10.135Z,28.49
2018-07-22T09:22:10.164Z,28.79
2018-07-22T09:23:10.236Z,29.02
2018-07-22T09:24:10.172Z,29.04
2018-07-22T09:25:10.188Z,28.76
2018-07-22T09:26:10.264Z,28.95
2018-07-22T09:27:10.283Z,29.25
2018-07-22T09:28:10.237Z,29.12
2018-07-22T09:29:10.197Z,28.99
2018-07-22T09:30:10.260Z,28.86
2018-07-22T09:31:10.177Z,28.82
2018-07-22T09:32:10.239Z,28.53
2018-07-22T09:33:10.141Z,28.42
2018-07-22T09:34:10.270Z,28.25
2018-07-22T09:35:10.217Z,28.00
2018-07-22T09:36:10.389Z,27.92
2018-07-22T09:37:10.150Z,27.82
2018-07-22T09:38:10.277Z,27.96
2018-07-22T09:39:10.341Z,27.98
2018-07-22T09:40:10.246Z,28.22
2018-07-22T09:41:10.202Z,28.43
2018-07-22T09:42:10.292Z,28.14
2018-07-22T09:43:10.154Z,28.22
2018-07-22T09:44:10.184Z,28.40
2018-07-22T09:45:10.181Z,28.42
2018-07-22T09:46:10.181Z,28.18
2018-07-22T09:47:10.249Z,28.11
2018-07-22T09:48:10.302Z,28.21
2018-07-22T09:49:10.248Z,28.11
2018-07-22T09:50:10.194Z,28.15
2018-07-22T09:51:10.245Z,28.11
2018-07-22T09:52:10.185Z,27.99
2018-07-22T09:53:10.190Z,27.89
2018-07-22T09:54:10.213Z,27.70
2018-07-22T09:55:10.195Z,27.62
2018-07-22T09:56:10.287Z,27.58
2018-07-22T09:57:10.267Z,27.40
2018-07-22T09:58:10.228Z,27.41
2018-07-22T09:59:10.265Z,27.34
2018-07-22T10:00:10.286Z,27.18
2018-07-22T10:01:10.159Z,27.07
2018-07-22T10:02:10.260Z,26.93
2018-07-22T10:03:10.262Z,26.92
2018-07-22T10:04:10.252Z,27.04
2018-07-22T10:05:10.250Z,27.15
2018-07-22T10:06:10.251Z,27.06
2018-07-22T10:07:10.172Z,27.22
2018-07-22T10:08:10.147Z,27.28
2018-07-22T10:09:10.260Z,27.28
2018-07-22T10:10:10.262Z,27.23
2018-07-22T10:11:10.332Z,27.23
2018-07-22T10:12:10.192Z,27.10
2018-07-22T10:13:10.260Z,27.19
2018-07-22T10:14:10.166Z,27.19
2018-07-22T10:15:10.175Z,27.19
2018-07-22T10:16:10.217Z,27.08
2018-07-22T10:17:10.173Z,27.25
2018-07-22T10:18:10.167Z,27.30
2018-07-22T10:19:10.220Z,27.39
2018-07-22T10:20:10.180Z,27.51
2018-07-22T10:21:10.220Z,27.57
2018-07-22T10:22:10.190Z,27.48
2018-07-22T10:23:10.172Z,27.44
2018-07-22T10:24:10.181Z,27.39
2018-07-22T10:25:10.266Z,27.47
2018-07-22T10:26:10.230Z,27.58
2018-07-22T10:27:10.265Z,27.75
2018-07-22T10:28:10.271Z,27.75
2018-07-22T10:29:10.167Z,27.73
2018-07-22T10:30:10.230Z,27.84
2018-07-22T10:31:10.269Z,28.00
2018-07-22T10:32:10.284Z,28.33
2018-07-22T10:33:10.186Z,28.75
2018-07-22T10:34:10.184Z,28.95
2018-07-22T10:35:10.230Z,29.14
2018-07-22T10:36:10.229Z,29.06
2018-07-22T10:37:10.230Z,29.35
2018-07-22T10:38:10.274Z,29.75
2018-07-22T10:39:10.282Z,30.08
2018-07-22T10:40:10.224Z,30.41
2018-07-22T10:41:10.241Z,30.43
2018-07-22T10:42:10.192Z,30.28
2018-07-22T10:43:10.304Z,30.31
2018-07-22T10:44:10.162Z,30.37
2018-07-22T10:45:10.224Z,30.08
2018-07-22T10:46:10.198Z,29.90
2018-07-22T10:47:10.285Z,29.64
2018-07-22T10:48:10.230Z,29.31
2018-07-22T10:49:10.166Z,29.40
2018-07-22T10:50:10.300Z,29.48
2018-07-22T10:51:10.227Z,29.47
2018-07-22T10:52:10.166Z,28.99
2018-07-22T10:53:10.250Z,28.71
2018-07-22T10:54:10.270Z,28.37
2018-07-22T10:55:10.317Z,28.02
2018-07-22T10:56:10.332Z,28.13
2018-07-22T10:57:10.298Z,28.15
2018-07-22T10:58:10.202Z,28.15
2018-07-22T10:59:10.323Z,28.11
2018-07-22T11:00:10.220Z,27.88
2018-07-22T11:01:10.256Z,27.58
2018-07-22T11:02:10.275Z,27.36
2018-07-22T11:03:10.290Z,27.33
2018-07-22T11:04:10.270Z,27.32
2018-07-22T11:05:10.324Z,27.37
2018-07-22T11:06:10.259Z,27.25
2018-07-22T11:07:10.316Z,27.14
2018-07-22T11:08:10.284Z,27.18
2018-07-22T11:09:10.343Z,27.26
2018-07-22T11:10:10.235Z,27.23
2018-07-22T11:11:10.265Z,27.17
2018-07-22T11:12:10.346Z,27.11
2018-07-22T11:13:10.273Z,27.11
2018-07-22T11:14:10.336Z,27.15
2018-07-22T11:15:10.230Z,27.18
2018-07-22T11:16:10.208Z,27.25
2018-07-22T11:17:10.337Z,27.30
2018-07-22T11:18:10.231Z,27.39
2018-07-22T11:19:10.269Z,27.33
2018-07-22T11:20:10.277Z,27.36
2018-07-22T11:21:10.331Z,27.46
2018-07-22T11:22:10.222Z,27.55
2018-07-22T11:23:10.273Z,27.68
2018-07-22T11:24:10.253Z,27.71
2018-07-22T11:25:10.317Z,27.74
2018-07-22T11:26:10.280Z,27.70
2018-07-22T11:27:10.266Z,27.73
2018-07-22T11:28:10.254Z,27.71
2018-07-22T11:29:10.363Z,27.70
2018-07-22T11:30:10.319Z,27.75
2018-07-22T11:31:10.322Z,27.84
2018-07-22T11:32:10.321Z,27.85
2018-07-22T11:33:10.259Z,27.91
2018-07-22T11:34:10.386Z,27.86
2018-07-22T11:35:10.288Z,27.92
2018-07-22T11:36:10.272Z,28.06
2018-07-22T11:37:10.360Z,28.26
2018-07-22T11:38:10.369Z,28.46
2018-07-22T11:39:10.363Z,28.44
2018-07-22T11:40:10.329Z,28.47
2018-07-22T11:41:10.266Z,28.49
2018-07-22T11:42:10.329Z,28.36
2018-07-22T11:43:10.357Z,28.29
2018-07-22T11:44:10.295Z,28.03
2018-07-22T11:45:10.306Z,27.91
2018-07-22T11:46:10.352Z,27.91
2018-07-22T11:47:10.303Z,27.84
2018-07-22T11:48:10.303Z,27.89
2018-07-22T11:49:10.306Z,27.96
2018-07-22T11:50:10.256Z,28.02
2018-07-22T11:51:10.369Z,27.96
2018-07-22T11:52:10.307Z,27.81
2018-07-22T11:53:10.294Z,27.65
2018-07-22T11:54:10.337Z,27.63
2018-07-22T11:55:10.270Z,27.50
2018-07-22T11:56:10.339Z,27.44
2018-07-22T11:57:10.336Z,27.48
2018-07-22T11:58:10.340Z,27.36
2018-07-22T11:59:10.344Z,27.39
2018-07-22T12:00:10.280Z,27.44
2018-07-22T12:01:10.277Z,27.43
2018-07-22T12:02:10.279Z,27.44
2018-07-22T12:03:10.351Z,27.43
2018-07-22T12:04:10.321Z,27.47
2018-07-22T12:05:10.369Z,27.44
2018-07-22T12:06:10.306Z,27.40
2018-07-22T12:07:10.345Z,27.33
2018-07-22T12:08:10.316Z,27.26
2018-07-22T12:09:10.364Z,27.10
2018-07-22T12:10:10.379Z,27.08
2018-07-22T12:11:10.298Z,26.97
2018-07-22T12:12:10.328Z,26.77
2018-07-22T12:13:10.377Z,26.72
2018-07-22T12:14:10.347Z,26.68
2018-07-22T12:15:10.352Z,26.74
2018-07-22T12:16:10.349Z,26.74
2018-07-22T12:17:10.350Z,26.78
2018-07-22T12:18:10.287Z,26.79
2018-07-22T12:19:10.289Z,26.62
2018-07-22T12:20:10.351Z,26.55
2018-07-22T12:21:10.298Z,26.30
2018-07-22T12:22:10.361Z,26.03
2018-07-22T12:23:10.297Z,25.82
2018-07-22T12:24:10.358Z,25.68
2018-07-22T12:25:10.293Z,25.49
2018-07-22T12:26:10.356Z,25.23
2018-07-22T12:27:10.302Z,25.04
2018-07-22T12:28:10.489Z,24.90
2018-07-22T12:29:10.343Z,24.78
2018-07-22T12:30:10.364Z,24.61
2018-07-22T12:31:10.316Z,24.48
2018-07-22T12:32:10.303Z,24.37
2018-07-22T12:33:10.359Z,24.27
2018-07-22T12:34:10.301Z,24.11
2018-07-22T12:35:10.303Z,24.04
2018-07-22T12:36:10.299Z,24.00
2018-07-22T12:37:10.302Z,24.00
2018-07-22T12:38:10.303Z,24.00
2018-07-22T12:39:10.299Z,24.00
2018-07-22T12:40:10.368Z,24.02
2018-07-22T12:41:10.368Z,24.00
2018-07-22T12:42:10.370Z,23.98
2018-07-22T12:43:10.369Z,23.90
2018-07-22T12:44:10.402Z,23.89
2018-07-22T12:45:10.404Z,23.90
2018-07-22T12:46:10.390Z,23.87
2018-07-22T12:47:10.350Z,23.83
2018-07-22T12:48:10.449Z,23.86
2018-07-22T12:49:10.373Z,23.83
2018-07-22T12:50:10.279Z,23.83
2018-07-22T12:51:10.353Z,23.76
2018-07-22T12:52:10.281Z,23.65